sensor_id;sensor_type;location;lat;lon;timestamp;P1;durP1;ratioP1;P2;durP2;ratioP2
76814;SDS011;65768;49.906;19.384;2023-09-19T00:00:49;10.10;;;7.10;;
76814;SDS011;65768;49.906;19.384;2023-09-19T00:03:39;9.70;;;7.30;;
76814;SDS011;65768;49.906;19.384;2023-09-19T00:06:10;10.40;;;7.70;;
76814;SDS011;65768;49.906;19.384;2023-09-19T00:08:38;11.00;;;8.20;;
76814;SDS011;65768;49.906;19.384;2023-09-19T00:11:06;12.80;;;8.80;;
76814;SDS011;65768;49.906;19.384;2023-09-19T00:13:34;10.80;;;7.50;;
76814;SDS011;65768;49.906;19.384;2023-09-19T00:16:10;13.70;;;7.40;;
76814;SDS011;65768;49.906;19.384;2023-09-19T00:18:38;12.70;;;7.60;;
76814;SDS011;65768;49.906;19.384;2023-09-19T00:21:07;10.20;;;7.60;;
76814;SDS011;65768;49.906;19.384;2023-09-19T00:23:35;8.30;;;6.50;;
76814;SDS011;65768;49.906;19.384;2023-09-19T00:26:03;9.10;;;6.80;;
76814;SDS011;65768;49.906;19.384;2023-09-19T00:28:31;10.40;;;7.00;;
76814;SDS011;65768;49.906;19.384;2023-09-19T00:30:59;9.60;;;7.00;;
76814;SDS011;65768;49.906;19.384;2023-09-19T00:33:30;8.00;;;5.90;;
76814;SDS011;65768;49.906;19.384;2023-09-19T00:35:58;8.90;;;6.20;;
76814;SDS011;65768;49.906;19.384;2023-09-19T00:38:26;9.80;;;6.10;;
76814;SDS011;65768;49.906;19.384;2023-09-19T00:40:56;8.30;;;6.00;;
76814;SDS011;65768;49.906;19.384;2023-09-19T00:43:25;8.70;;;5.90;;
76814;SDS011;65768;49.906;19.384;2023-09-19T00:45:55;8.10;;;6.30;;
76814;SDS011;65768;49.906;19.384;2023-09-19T00:48:24;7.60;;;6.20;;
76814;SDS011;65768;49.906;19.384;2023-09-19T00:50:55;9.40;;;6.10;;
76814;SDS011;65768;49.906;19.384;2023-09-19T00:53:29;10.90;;;6.70;;
76814;SDS011;65768;49.906;19.384;2023-09-19T00:55:58;12.00;;;7.00;;
76814;SDS011;65768;49.906;19.384;2023-09-19T00:58:28;16.60;;;7.70;;
76814;SDS011;65768;49.906;19.384;2023-09-19T01:01:01;11.80;;;7.90;;
76814;SDS011;65768;49.906;19.384;2023-09-19T01:03:31;15.00;;;7.90;;
76814;SDS011;65768;49.906;19.384;2023-09-19T01:05:59;12.30;;;7.90;;
76814;SDS011;65768;49.906;19.384;2023-09-19T01:08:28;14.50;;;8.10;;
76814;SDS011;65768;49.906;19.384;2023-09-19T01:11:01;13.20;;;8.40;;
76814;SDS011;65768;49.906;19.384;2023-09-19T01:13:53;13.20;;;7.90;;
76814;SDS011;65768;49.906;19.384;2023-09-19T01:16:35;10.30;;;7.40;;
76814;SDS011;65768;49.906;19.384;2023-09-19T01:22:05;10.90;;;7.90;;
76814;SDS011;65768;49.906;19.384;2023-09-19T01:28:06;11.10;;;7.40;;
76814;SDS011;65768;49.906;19.384;2023-09-19T01:30:35;9.90;;;7.40;;
76814;SDS011;65768;49.906;19.384;2023-09-19T01:33:08;12.20;;;8.60;;
76814;SDS011;65768;49.906;19.384;2023-09-19T01:35:38;10.70;;;8.20;;
76814;SDS011;65768;49.906;19.384;2023-09-19T01:38:06;11.70;;;8.30;;
76814;SDS011;65768;49.906;19.384;2023-09-19T01:40:41;11.00;;;8.20;;
76814;SDS011;65768;49.906;19.384;2023-09-19T01:43:17;10.90;;;7.50;;
76814;SDS011;65768;49.906;19.384;2023-09-19T01:46:03;13.10;;;8.70;;
76814;SDS011;65768;49.906;19.384;2023-09-19T01:51:48;15.80;;;9.60;;
76814;SDS011;65768;49.906;19.384;2023-09-19T01:54:34;14.90;;;9.80;;
76814;SDS011;65768;49.906;19.384;2023-09-19T01:57:15;15.40;;;10.90;;
76814;SDS011;65768;49.906;19.384;2023-09-19T02:03:10;13.90;;;10.50;;
76814;SDS011;65768;49.906;19.384;2023-09-19T02:05:40;15.60;;;9.90;;
76814;SDS011;65768;49.906;19.384;2023-09-19T02:08:08;13.90;;;9.80;;
76814;SDS011;65768;49.906;19.384;2023-09-19T02:10:36;17.00;;;10.40;;
76814;SDS011;65768;49.906;19.384;2023-09-19T02:13:04;14.90;;;10.70;;
76814;SDS011;65768;49.906;19.384;2023-09-19T02:15:32;13.90;;;10.50;;
76814;SDS011;65768;49.906;19.384;2023-09-19T02:18:02;18.40;;;11.00;;
76814;SDS011;65768;49.906;19.384;2023-09-19T02:20:30;13.50;;;9.70;;
76814;SDS011;65768;49.906;19.384;2023-09-19T02:23:00;19.70;;;10.50;;
76814;SDS011;65768;49.906;19.384;2023-09-19T02:25:30;15.70;;;10.70;;
76814;SDS011;65768;49.906;19.384;2023-09-19T02:27:59;15.20;;;11.50;;
76814;SDS011;65768;49.906;19.384;2023-09-19T02:30:29;16.00;;;10.80;;
76814;SDS011;65768;49.906;19.384;2023-09-19T02:32:57;15.90;;;10.30;;
76814;SDS011;65768;49.906;19.384;2023-09-19T02:35:25;16.70;;;10.80;;
76814;SDS011;65768;49.906;19.384;2023-09-19T02:37:55;15.60;;;11.10;;
76814;SDS011;65768;49.906;19.384;2023-09-19T02:40:23;16.60;;;11.40;;
76814;SDS011;65768;49.906;19.384;2023-09-19T02:42:54;14.70;;;10.60;;
76814;SDS011;65768;49.906;19.384;2023-09-19T02:45:23;15.60;;;10.60;;
76814;SDS011;65768;49.906;19.384;2023-09-19T02:47:51;17.40;;;11.70;;
76814;SDS011;65768;49.906;19.384;2023-09-19T02:50:19;16.40;;;10.80;;
76814;SDS011;65768;49.906;19.384;2023-09-19T02:52:47;15.60;;;11.00;;
76814;SDS011;65768;49.906;19.384;2023-09-19T02:55:16;17.20;;;10.30;;
76814;SDS011;65768;49.906;19.384;2023-09-19T02:57:47;14.90;;;10.20;;
76814;SDS011;65768;49.906;19.384;2023-09-19T03:00:18;17.80;;;12.00;;
76814;SDS011;65768;49.906;19.384;2023-09-19T03:02:50;19.10;;;12.20;;
76814;SDS011;65768;49.906;19.384;2023-09-19T03:05:21;14.40;;;9.30;;
76814;SDS011;65768;49.906;19.384;2023-09-19T03:07:51;17.80;;;11.30;;
76814;SDS011;65768;49.906;19.384;2023-09-19T03:10:19;19.50;;;12.10;;
76814;SDS011;65768;49.906;19.384;2023-09-19T03:12:48;17.50;;;12.20;;
76814;SDS011;65768;49.906;19.384;2023-09-19T03:15:16;18.80;;;12.70;;
76814;SDS011;65768;49.906;19.384;2023-09-19T03:17:46;16.50;;;11.50;;
76814;SDS011;65768;49.906;19.384;2023-09-19T03:20:15;17.30;;;11.40;;
76814;SDS011;65768;49.906;19.384;2023-09-19T03:22:46;18.30;;;12.20;;
76814;SDS011;65768;49.906;19.384;2023-09-19T03:25:15;15.60;;;12.10;;
76814;SDS011;65768;49.906;19.384;2023-09-19T03:27:44;18.80;;;12.00;;
76814;SDS011;65768;49.906;19.384;2023-09-19T03:30:12;20.20;;;11.70;;
76814;SDS011;65768;49.906;19.384;2023-09-19T03:32:47;18.10;;;10.90;;
76814;SDS011;65768;49.906;19.384;2023-09-19T03:35:17;24.90;;;13.60;;
76814;SDS011;65768;49.906;19.384;2023-09-19T03:37:45;19.30;;;13.70;;
76814;SDS011;65768;49.906;19.384;2023-09-19T03:40:13;18.70;;;12.50;;
76814;SDS011;65768;49.906;19.384;2023-09-19T03:42:46;20.40;;;13.10;;
76814;SDS011;65768;49.906;19.384;2023-09-19T03:45:15;17.00;;;11.80;;
76814;SDS011;65768;49.906;19.384;2023-09-19T03:47:44;19.00;;;12.60;;
76814;SDS011;65768;49.906;19.384;2023-09-19T03:50:14;21.80;;;13.40;;
76814;SDS011;65768;49.906;19.384;2023-09-19T03:52:45;18.60;;;13.40;;
76814;SDS011;65768;49.906;19.384;2023-09-19T03:55:14;17.90;;;12.30;;
76814;SDS011;65768;49.906;19.384;2023-09-19T03:57:42;21.00;;;13.10;;
76814;SDS011;65768;49.906;19.384;2023-09-19T04:00:10;17.50;;;12.60;;
76814;SDS011;65768;49.906;19.384;2023-09-19T04:02:39;18.50;;;12.10;;
76814;SDS011;65768;49.906;19.384;2023-09-19T04:05:07;18.20;;;11.90;;
76814;SDS011;65768;49.906;19.384;2023-09-19T04:07:35;16.50;;;12.30;;
76814;SDS011;65768;49.906;19.384;2023-09-19T04:10:04;17.20;;;12.10;;
76814;SDS011;65768;49.906;19.384;2023-09-19T04:12:32;20.50;;;14.30;;
76814;SDS011;65768;49.906;19.384;2023-09-19T04:15:00;21.30;;;13.50;;
76814;SDS011;65768;49.906;19.384;2023-09-19T04:17:28;17.90;;;12.50;;
76814;SDS011;65768;49.906;19.384;2023-09-19T04:19:56;21.30;;;12.70;;
76814;SDS011;65768;49.906;19.384;2023-09-19T04:22:24;19.40;;;12.60;;
76814;SDS011;65768;49.906;19.384;2023-09-19T04:24:52;20.90;;;14.10;;
76814;SDS011;65768;49.906;19.384;2023-09-19T04:27:20;19.60;;;12.70;;
76814;SDS011;65768;49.906;19.384;2023-09-19T04:29:48;22.00;;;12.90;;
76814;SDS011;65768;49.906;19.384;2023-09-19T04:32:18;18.00;;;11.40;;
76814;SDS011;65768;49.906;19.384;2023-09-19T04:34:46;18.40;;;13.00;;
76814;SDS011;65768;49.906;19.384;2023-09-19T04:37:17;21.10;;;13.50;;
76814;SDS011;65768;49.906;19.384;2023-09-19T04:39:45;18.20;;;13.30;;
76814;SDS011;65768;49.906;19.384;2023-09-19T04:42:13;18.40;;;13.30;;
76814;SDS011;65768;49.906;19.384;2023-09-19T04:44:45;20.30;;;13.20;;
76814;SDS011;65768;49.906;19.384;2023-09-19T04:47:14;22.80;;;15.10;;
76814;SDS011;65768;49.906;19.384;2023-09-19T04:49:43;24.00;;;15.30;;
76814;SDS011;65768;49.906;19.384;2023-09-19T04:52:11;22.00;;;14.90;;
76814;SDS011;65768;49.906;19.384;2023-09-19T04:54:42;21.60;;;15.00;;
76814;SDS011;65768;49.906;19.384;2023-09-19T04:57:10;22.00;;;15.40;;
76814;SDS011;65768;49.906;19.384;2023-09-19T04:59:39;22.30;;;15.10;;
76814;SDS011;65768;49.906;19.384;2023-09-19T05:02:08;19.40;;;13.30;;
76814;SDS011;65768;49.906;19.384;2023-09-19T05:04:37;24.20;;;14.00;;
76814;SDS011;65768;49.906;19.384;2023-09-19T05:07:05;20.70;;;13.90;;
76814;SDS011;65768;49.906;19.384;2023-09-19T05:09:33;25.10;;;17.50;;
76814;SDS011;65768;49.906;19.384;2023-09-19T05:12:02;23.10;;;15.60;;
76814;SDS011;65768;49.906;19.384;2023-09-19T05:14:30;26.10;;;16.80;;
76814;SDS011;65768;49.906;19.384;2023-09-19T05:16:58;26.90;;;16.40;;
76814;SDS011;65768;49.906;19.384;2023-09-19T05:19:27;28.40;;;16.40;;
76814;SDS011;65768;49.906;19.384;2023-09-19T05:21:55;23.70;;;14.90;;
76814;SDS011;65768;49.906;19.384;2023-09-19T05:24:23;26.90;;;16.20;;
76814;SDS011;65768;49.906;19.384;2023-09-19T05:26:54;28.20;;;17.40;;
76814;SDS011;65768;49.906;19.384;2023-09-19T05:29:23;27.90;;;16.60;;
76814;SDS011;65768;49.906;19.384;2023-09-19T05:31:51;26.60;;;15.80;;
76814;SDS011;65768;49.906;19.384;2023-09-19T05:34:22;27.60;;;17.80;;
76814;SDS011;65768;49.906;19.384;2023-09-19T05:36:50;27.40;;;16.90;;
76814;SDS011;65768;49.906;19.384;2023-09-19T05:39:19;22.50;;;15.00;;
76814;SDS011;65768;49.906;19.384;2023-09-19T05:41:48;26.40;;;16.80;;
76814;SDS011;65768;49.906;19.384;2023-09-19T05:44:16;26.10;;;16.10;;
76814;SDS011;65768;49.906;19.384;2023-09-19T05:46:44;24.30;;;14.80;;
76814;SDS011;65768;49.906;19.384;2023-09-19T05:49:15;23.30;;;15.50;;
76814;SDS011;65768;49.906;19.384;2023-09-19T05:51:44;20.90;;;14.60;;
76814;SDS011;65768;49.906;19.384;2023-09-19T05:54:13;23.00;;;15.60;;
76814;SDS011;65768;49.906;19.384;2023-09-19T05:56:43;26.80;;;16.20;;
76814;SDS011;65768;49.906;19.384;2023-09-19T05:59:11;23.70;;;15.50;;
76814;SDS011;65768;49.906;19.384;2023-09-19T06:01:39;23.30;;;14.90;;
76814;SDS011;65768;49.906;19.384;2023-09-19T06:04:07;26.40;;;17.20;;
76814;SDS011;65768;49.906;19.384;2023-09-19T06:06:36;25.50;;;17.10;;
76814;SDS011;65768;49.906;19.384;2023-09-19T06:09:07;25.10;;;16.30;;
76814;SDS011;65768;49.906;19.384;2023-09-19T06:11:38;23.80;;;15.50;;
76814;SDS011;65768;49.906;19.384;2023-09-19T06:14:06;23.70;;;15.30;;
76814;SDS011;65768;49.906;19.384;2023-09-19T06:16:35;26.20;;;17.20;;
76814;SDS011;65768;49.906;19.384;2023-09-19T06:19:03;26.80;;;16.20;;
76814;SDS011;65768;49.906;19.384;2023-09-19T06:21:34;23.20;;;15.60;;
76814;SDS011;65768;49.906;19.384;2023-09-19T06:24:02;23.40;;;15.70;;
76814;SDS011;65768;49.906;19.384;2023-09-19T06:26:30;24.90;;;16.00;;
76814;SDS011;65768;49.906;19.384;2023-09-19T06:28:59;28.00;;;16.50;;
76814;SDS011;65768;49.906;19.384;2023-09-19T06:31:28;23.30;;;16.00;;
76814;SDS011;65768;49.906;19.384;2023-09-19T06:33:56;26.40;;;16.20;;
76814;SDS011;65768;49.906;19.384;2023-09-19T06:36:25;26.50;;;16.70;;
76814;SDS011;65768;49.906;19.384;2023-09-19T06:38:55;23.00;;;15.30;;
76814;SDS011;65768;49.906;19.384;2023-09-19T06:41:25;19.90;;;11.50;;
76814;SDS011;65768;49.906;19.384;2023-09-19T06:43:53;12.40;;;8.30;;
76814;SDS011;65768;49.906;19.384;2023-09-19T06:46:22;12.80;;;7.30;;
76814;SDS011;65768;49.906;19.384;2023-09-19T06:48:50;10.40;;;5.90;;
76814;SDS011;65768;49.906;19.384;2023-09-19T06:51:21;14.30;;;7.20;;
76814;SDS011;65768;49.906;19.384;2023-09-19T06:53:50;9.10;;;6.10;;
76814;SDS011;65768;49.906;19.384;2023-09-19T06:56:22;13.20;;;8.10;;
76814;SDS011;65768;49.906;19.384;2023-09-19T06:58:52;12.40;;;7.10;;
76814;SDS011;65768;49.906;19.384;2023-09-19T07:01:20;13.20;;;6.50;;
76814;SDS011;65768;49.906;19.384;2023-09-19T07:03:50;15.70;;;6.60;;
76814;SDS011;65768;49.906;19.384;2023-09-19T07:06:19;8.60;;;5.80;;
76814;SDS011;65768;49.906;19.384;2023-09-19T07:08:47;12.10;;;7.60;;
76814;SDS011;65768;49.906;19.384;2023-09-19T07:11:16;16.70;;;6.60;;
76814;SDS011;65768;49.906;19.384;2023-09-19T07:13:45;11.30;;;7.00;;
76814;SDS011;65768;49.906;19.384;2023-09-19T07:16:13;12.70;;;7.10;;
76814;SDS011;65768;49.906;19.384;2023-09-19T07:18:41;16.30;;;8.30;;
76814;SDS011;65768;49.906;19.384;2023-09-19T07:21:12;12.40;;;7.40;;
76814;SDS011;65768;49.906;19.384;2023-09-19T07:23:43;11.20;;;6.60;;
76814;SDS011;65768;49.906;19.384;2023-09-19T07:26:11;10.40;;;6.00;;
76814;SDS011;65768;49.906;19.384;2023-09-19T07:28:39;8.90;;;5.50;;
76814;SDS011;65768;49.906;19.384;2023-09-19T07:31:07;7.50;;;4.70;;
76814;SDS011;65768;49.906;19.384;2023-09-19T07:33:37;9.20;;;5.20;;
76814;SDS011;65768;49.906;19.384;2023-09-19T07:36:05;9.60;;;4.30;;
76814;SDS011;65768;49.906;19.384;2023-09-19T07:38:38;8.40;;;4.90;;
76814;SDS011;65768;49.906;19.384;2023-09-19T07:41:07;8.30;;;4.80;;
76814;SDS011;65768;49.906;19.384;2023-09-19T07:43:39;8.00;;;4.50;;
76814;SDS011;65768;49.906;19.384;2023-09-19T07:46:08;6.00;;;3.50;;
76814;SDS011;65768;49.906;19.384;2023-09-19T07:48:39;5.20;;;3.30;;
76814;SDS011;65768;49.906;19.384;2023-09-19T07:51:08;5.90;;;3.70;;
76814;SDS011;65768;49.906;19.384;2023-09-19T07:53:36;7.20;;;3.70;;
76814;SDS011;65768;49.906;19.384;2023-09-19T07:56:05;6.10;;;4.10;;
76814;SDS011;65768;49.906;19.384;2023-09-19T07:58:35;5.90;;;3.70;;
76814;SDS011;65768;49.906;19.384;2023-09-19T08:01:07;9.00;;;4.70;;
76814;SDS011;65768;49.906;19.384;2023-09-19T08:03:36;13.20;;;5.20;;
76814;SDS011;65768;49.906;19.384;2023-09-19T08:06:11;8.30;;;4.20;;
76814;SDS011;65768;49.906;19.384;2023-09-19T08:08:42;8.50;;;4.10;;
76814;SDS011;65768;49.906;19.384;2023-09-19T08:11:10;7.60;;;4.30;;
76814;SDS011;65768;49.906;19.384;2023-09-19T08:13:39;7.50;;;4.10;;
76814;SDS011;65768;49.906;19.384;2023-09-19T08:16:13;7.30;;;3.80;;
76814;SDS011;65768;49.906;19.384;2023-09-19T08:18:42;8.50;;;3.90;;
76814;SDS011;65768;49.906;19.384;2023-09-19T08:21:11;8.70;;;4.80;;
76814;SDS011;65768;49.906;19.384;2023-09-19T08:23:39;7.40;;;4.00;;
76814;SDS011;65768;49.906;19.384;2023-09-19T08:26:08;9.30;;;4.50;;
76814;SDS011;65768;49.906;19.384;2023-09-19T08:28:37;7.00;;;4.00;;
76814;SDS011;65768;49.906;19.384;2023-09-19T08:31:08;10.60;;;4.50;;
76814;SDS011;65768;49.906;19.384;2023-09-19T08:33:37;7.10;;;4.10;;
76814;SDS011;65768;49.906;19.384;2023-09-19T08:36:05;6.40;;;3.60;;
76814;SDS011;65768;49.906;19.384;2023-09-19T08:38:35;8.10;;;3.90;;
76814;SDS011;65768;49.906;19.384;2023-09-19T08:41:07;6.60;;;3.70;;
76814;SDS011;65768;49.906;19.384;2023-09-19T08:43:36;5.30;;;3.10;;
76814;SDS011;65768;49.906;19.384;2023-09-19T08:46:08;5.40;;;3.00;;
76814;SDS011;65768;49.906;19.384;2023-09-19T08:48:45;6.80;;;2.90;;
76814;SDS011;65768;49.906;19.384;2023-09-19T08:51:39;5.50;;;2.60;;
76814;SDS011;65768;49.906;19.384;2023-09-19T08:57:00;5.30;;;3.20;;
76814;SDS011;65768;49.906;19.384;2023-09-19T08:59:37;5.90;;;3.60;;
76814;SDS011;65768;49.906;19.384;2023-09-19T09:02:11;8.70;;;3.60;;
76814;SDS011;65768;49.906;19.384;2023-09-19T09:04:41;8.80;;;5.00;;
76814;SDS011;65768;49.906;19.384;2023-09-19T09:07:13;8.60;;;5.60;;
76814;SDS011;65768;49.906;19.384;2023-09-19T09:09:42;11.30;;;6.00;;
76814;SDS011;65768;49.906;19.384;2023-09-19T09:12:11;9.20;;;5.60;;
76814;SDS011;65768;49.906;19.384;2023-09-19T09:14:47;10.60;;;5.70;;
76814;SDS011;65768;49.906;19.384;2023-09-19T09:17:17;7.50;;;5.00;;
76814;SDS011;65768;49.906;19.384;2023-09-19T09:19:47;8.10;;;4.50;;
76814;SDS011;65768;49.906;19.384;2023-09-19T09:22:16;9.50;;;4.10;;
76814;SDS011;65768;49.906;19.384;2023-09-19T09:24:52;8.30;;;4.70;;
76814;SDS011;65768;49.906;19.384;2023-09-19T09:27:22;4.90;;;3.30;;
76814;SDS011;65768;49.906;19.384;2023-09-19T09:29:52;5.80;;;3.60;;
76814;SDS011;65768;49.906;19.384;2023-09-19T09:32:23;5.80;;;3.30;;
76814;SDS011;65768;49.906;19.384;2023-09-19T09:35:06;7.00;;;3.20;;
76814;SDS011;65768;49.906;19.384;2023-09-19T09:37:38;7.30;;;3.30;;
76814;SDS011;65768;49.906;19.384;2023-09-19T09:40:06;5.80;;;3.50;;
76814;SDS011;65768;49.906;19.384;2023-09-19T09:42:44;6.30;;;3.00;;
76814;SDS011;65768;49.906;19.384;2023-09-19T09:45:18;4.10;;;2.90;;
76814;SDS011;65768;49.906;19.384;2023-09-19T09:48:04;6.00;;;3.30;;
76814;SDS011;65768;49.906;19.384;2023-09-19T09:50:48;5.40;;;3.10;;
76814;SDS011;65768;49.906;19.384;2023-09-19T09:53:20;4.50;;;3.00;;
76814;SDS011;65768;49.906;19.384;2023-09-19T09:56:05;8.20;;;3.10;;
76814;SDS011;65768;49.906;19.384;2023-09-19T09:58:50;4.80;;;3.00;;
76814;SDS011;65768;49.906;19.384;2023-09-19T10:01:23;4.90;;;3.50;;
76814;SDS011;65768;49.906;19.384;2023-09-19T10:03:57;6.70;;;3.20;;
76814;SDS011;65768;49.906;19.384;2023-09-19T10:06:26;4.00;;;2.90;;
76814;SDS011;65768;49.906;19.384;2023-09-19T10:14:30;6.40;;;3.80;;
76814;SDS011;65768;49.906;19.384;2023-09-19T10:17:04;7.00;;;3.60;;
76814;SDS011;65768;49.906;19.384;2023-09-19T10:19:36;5.20;;;3.00;;
76814;SDS011;65768;49.906;19.384;2023-09-19T10:22:20;8.90;;;3.40;;
76814;SDS011;65768;49.906;19.384;2023-09-19T10:24:50;5.20;;;3.90;;
76814;SDS011;65768;49.906;19.384;2023-09-19T10:27:21;9.10;;;4.20;;
76814;SDS011;65768;49.906;19.384;2023-09-19T10:29:54;10.40;;;5.90;;
76814;SDS011;65768;49.906;19.384;2023-09-19T10:32:24;10.50;;;6.30;;
76814;SDS011;65768;49.906;19.384;2023-09-19T10:34:56;15.60;;;8.40;;
76814;SDS011;65768;49.906;19.384;2023-09-19T10:37:25;9.40;;;5.50;;
76814;SDS011;65768;49.906;19.384;2023-09-19T10:39:56;7.30;;;5.40;;
76814;SDS011;65768;49.906;19.384;2023-09-19T10:42:24;6.10;;;4.00;;
76814;SDS011;65768;49.906;19.384;2023-09-19T10:47:27;9.20;;;4.50;;
76814;SDS011;65768;49.906;19.384;2023-09-19T10:49:56;8.00;;;5.30;;
76814;SDS011;65768;49.906;19.384;2023-09-19T10:52:25;8.70;;;5.30;;
76814;SDS011;65768;49.906;19.384;2023-09-19T10:54:55;11.70;;;6.00;;
76814;SDS011;65768;49.906;19.384;2023-09-19T10:57:26;14.30;;;6.70;;
76814;SDS011;65768;49.906;19.384;2023-09-19T11:05:43;12.90;;;7.50;;
76814;SDS011;65768;49.906;19.384;2023-09-19T11:08:29;12.90;;;6.80;;
76814;SDS011;65768;49.906;19.384;2023-09-19T11:25:45;14.90;;;6.90;;
76814;SDS011;65768;49.906;19.384;2023-09-19T11:30:51;11.30;;;7.10;;
76814;SDS011;65768;49.906;19.384;2023-09-19T11:33:23;9.30;;;5.80;;
76814;SDS011;65768;49.906;19.384;2023-09-19T11:36:03;11.70;;;9.30;;
76814;SDS011;65768;49.906;19.384;2023-09-19T11:46:29;9.40;;;5.40;;
76814;SDS011;65768;49.906;19.384;2023-09-19T11:49:08;7.90;;;5.60;;
76814;SDS011;65768;49.906;19.384;2023-09-19T11:51:43;9.30;;;5.60;;
76814;SDS011;65768;49.906;19.384;2023-09-19T11:54:13;9.50;;;5.80;;
76814;SDS011;65768;49.906;19.384;2023-09-19T11:57:02;7.00;;;4.00;;
76814;SDS011;65768;49.906;19.384;2023-09-19T11:59:32;8.10;;;3.70;;
76814;SDS011;65768;49.906;19.384;2023-09-19T12:02:01;5.00;;;4.10;;
76814;SDS011;65768;49.906;19.384;2023-09-19T12:04:42;5.70;;;3.90;;
76814;SDS011;65768;49.906;19.384;2023-09-19T12:07:14;7.40;;;4.30;;
76814;SDS011;65768;49.906;19.384;2023-09-19T12:09:49;9.60;;;5.30;;
76814;SDS011;65768;49.906;19.384;2023-09-19T12:12:30;7.60;;;6.10;;
76814;SDS011;65768;49.906;19.384;2023-09-19T12:15:00;10.10;;;5.50;;
76814;SDS011;65768;49.906;19.384;2023-09-19T12:17:38;7.80;;;4.80;;
76814;SDS011;65768;49.906;19.384;2023-09-19T12:20:09;6.80;;;4.80;;
76814;SDS011;65768;49.906;19.384;2023-09-19T12:22:43;5.20;;;3.60;;
76814;SDS011;65768;49.906;19.384;2023-09-19T12:25:14;5.30;;;3.50;;
76814;SDS011;65768;49.906;19.384;2023-09-19T12:27:45;6.00;;;4.00;;
76814;SDS011;65768;49.906;19.384;2023-09-19T12:30:26;5.80;;;3.80;;
76814;SDS011;65768;49.906;19.384;2023-09-19T12:32:56;5.80;;;4.50;;
76814;SDS011;65768;49.906;19.384;2023-09-19T12:35:27;5.40;;;4.10;;
76814;SDS011;65768;49.906;19.384;2023-09-19T12:37:58;10.10;;;4.30;;
76814;SDS011;65768;49.906;19.384;2023-09-19T12:40:26;7.20;;;4.50;;
76814;SDS011;65768;49.906;19.384;2023-09-19T12:43:02;5.30;;;4.10;;
76814;SDS011;65768;49.906;19.384;2023-09-19T12:45:32;7.40;;;5.90;;
76814;SDS011;65768;49.906;19.384;2023-09-19T12:48:17;7.60;;;5.00;;
76814;SDS011;65768;49.906;19.384;2023-09-19T12:56:13;6.60;;;4.80;;
76814;SDS011;65768;49.906;19.384;2023-09-19T12:59:03;7.80;;;5.40;;
76814;SDS011;65768;49.906;19.384;2023-09-19T13:01:33;6.20;;;4.40;;
76814;SDS011;65768;49.906;19.384;2023-09-19T13:04:12;7.60;;;5.00;;
76814;SDS011;65768;49.906;19.384;2023-09-19T13:06:49;5.30;;;3.20;;
76814;SDS011;65768;49.906;19.384;2023-09-19T13:09:19;6.10;;;4.30;;
76814;SDS011;65768;49.906;19.384;2023-09-19T13:11:49;5.90;;;3.70;;
76814;SDS011;65768;49.906;19.384;2023-09-19T13:17:01;5.70;;;3.90;;
76814;SDS011;65768;49.906;19.384;2023-09-19T13:19:45;3.60;;;3.00;;
76814;SDS011;65768;49.906;19.384;2023-09-19T13:22:36;7.00;;;4.60;;
76814;SDS011;65768;49.906;19.384;2023-09-19T13:25:13;5.90;;;3.80;;
76814;SDS011;65768;49.906;19.384;2023-09-19T13:27:49;5.40;;;3.40;;
76814;SDS011;65768;49.906;19.384;2023-09-19T13:30:20;5.80;;;3.50;;
76814;SDS011;65768;49.906;19.384;2023-09-19T13:33:09;5.90;;;3.20;;
76814;SDS011;65768;49.906;19.384;2023-09-19T13:35:38;6.50;;;3.80;;
76814;SDS011;65768;49.906;19.384;2023-09-19T13:38:10;6.50;;;3.30;;
76814;SDS011;65768;49.906;19.384;2023-09-19T13:40:40;4.40;;;3.00;;
76814;SDS011;65768;49.906;19.384;2023-09-19T13:43:11;4.80;;;2.80;;
76814;SDS011;65768;49.906;19.384;2023-09-19T13:45:40;4.60;;;3.10;;
76814;SDS011;65768;49.906;19.384;2023-09-19T13:48:12;4.60;;;2.90;;
76814;SDS011;65768;49.906;19.384;2023-09-19T13:50:40;5.00;;;3.00;;
76814;SDS011;65768;49.906;19.384;2023-09-19T13:53:10;3.90;;;3.10;;
76814;SDS011;65768;49.906;19.384;2023-09-19T13:55:39;5.10;;;3.10;;
76814;SDS011;65768;49.906;19.384;2023-09-19T13:58:08;4.40;;;2.80;;
76814;SDS011;65768;49.906;19.384;2023-09-19T14:00:38;4.60;;;2.50;;
76814;SDS011;65768;49.906;19.384;2023-09-19T14:03:08;3.10;;;2.40;;
76814;SDS011;65768;49.906;19.384;2023-09-19T14:05:40;5.90;;;3.10;;
76814;SDS011;65768;49.906;19.384;2023-09-19T14:08:10;4.50;;;2.80;;
76814;SDS011;65768;49.906;19.384;2023-09-19T14:10:40;4.20;;;3.10;;
76814;SDS011;65768;49.906;19.384;2023-09-19T14:13:08;5.40;;;3.10;;
76814;SDS011;65768;49.906;19.384;2023-09-19T14:15:36;4.60;;;3.20;;
76814;SDS011;65768;49.906;19.384;2023-09-19T14:18:06;6.50;;;3.50;;
76814;SDS011;65768;49.906;19.384;2023-09-19T14:20:37;4.80;;;3.60;;
76814;SDS011;65768;49.906;19.384;2023-09-19T14:23:08;5.90;;;3.30;;
76814;SDS011;65768;49.906;19.384;2023-09-19T14:25:36;4.20;;;3.30;;
76814;SDS011;65768;49.906;19.384;2023-09-19T14:28:06;6.50;;;3.50;;
76814;SDS011;65768;49.906;19.384;2023-09-19T14:30:36;5.70;;;3.40;;
76814;SDS011;65768;49.906;19.384;2023-09-19T14:33:07;5.00;;;3.40;;
76814;SDS011;65768;49.906;19.384;2023-09-19T14:35:36;5.90;;;3.60;;
76814;SDS011;65768;49.906;19.384;2023-09-19T14:38:08;6.80;;;3.80;;
76814;SDS011;65768;49.906;19.384;2023-09-19T14:40:36;6.10;;;4.20;;
76814;SDS011;65768;49.906;19.384;2023-09-19T14:43:05;5.60;;;4.10;;
76814;SDS011;65768;49.906;19.384;2023-09-19T14:45:33;8.80;;;5.20;;
76814;SDS011;65768;49.906;19.384;2023-09-19T14:48:04;5.80;;;4.40;;
76814;SDS011;65768;49.906;19.384;2023-09-19T14:50:33;6.60;;;4.10;;
76814;SDS011;65768;49.906;19.384;2023-09-19T14:53:01;4.60;;;3.80;;
76814;SDS011;65768;49.906;19.384;2023-09-19T14:55:30;7.20;;;3.50;;
76814;SDS011;65768;49.906;19.384;2023-09-19T14:58:02;4.90;;;3.80;;
76814;SDS011;65768;49.906;19.384;2023-09-19T15:00:30;8.90;;;4.20;;
76814;SDS011;65768;49.906;19.384;2023-09-19T15:03:00;7.10;;;4.80;;
76814;SDS011;65768;49.906;19.384;2023-09-19T15:05:29;6.10;;;4.20;;
76814;SDS011;65768;49.906;19.384;2023-09-19T15:07:57;5.80;;;4.40;;
76814;SDS011;65768;49.906;19.384;2023-09-19T15:10:26;4.90;;;3.60;;
76814;SDS011;65768;49.906;19.384;2023-09-19T15:12:54;5.90;;;4.30;;
76814;SDS011;65768;49.906;19.384;2023-09-19T15:15:23;6.30;;;4.30;;
76814;SDS011;65768;49.906;19.384;2023-09-19T15:17:51;5.70;;;4.60;;
76814;SDS011;65768;49.906;19.384;2023-09-19T15:20:19;5.60;;;3.90;;
76814;SDS011;65768;49.906;19.384;2023-09-19T15:22:47;5.60;;;4.00;;
76814;SDS011;65768;49.906;19.384;2023-09-19T15:25:15;6.10;;;4.30;;
76814;SDS011;65768;49.906;19.384;2023-09-19T15:27:44;5.00;;;3.60;;
76814;SDS011;65768;49.906;19.384;2023-09-19T15:30:13;5.10;;;3.90;;
76814;SDS011;65768;49.906;19.384;2023-09-19T15:32:43;5.00;;;3.80;;
76814;SDS011;65768;49.906;19.384;2023-09-19T15:35:11;5.10;;;4.30;;
76814;SDS011;65768;49.906;19.384;2023-09-19T15:37:41;6.90;;;5.50;;
76814;SDS011;65768;49.906;19.384;2023-09-19T15:40:10;8.50;;;6.30;;
76814;SDS011;65768;49.906;19.384;2023-09-19T15:42:41;5.90;;;4.20;;
76814;SDS011;65768;49.906;19.384;2023-09-19T15:45:10;17.10;;;8.30;;
76814;SDS011;65768;49.906;19.384;2023-09-19T15:47:38;6.30;;;3.90;;